aviador You're here:

KOZR Decoded Metar

OZARK/CAIRNS AAF in AL, USA
Report Time2017-05-23 14:35:00
UTC Time2017-05-23 14:45:06
Flight Rules ifr IFR
Wind180° at 10 Gusting to 19 kt
W.Decomp.*RWY 18: 10.0 kt HW 0.5 kt RCW
RWY 24: 5.4 kt HW 8.4 kt LCW
W.Rank180° ranks 10
Current wind is above 180° avg. (6.0)
Visibility9999 m
Phenomena:N/A
Clouds:Few 003 Hf
Broken 008 Hf
Expected CloudBase > 400 ft AGL from Temp-Dew spread
Ceiling800 ft
Temp23°C (ISA +9)
Dew Point22°C (94% RH)
QNH1009 hPa
Density Alt1,791 ft
Elevation305 ft
Report Wrong Elevation
Raw Report
KOZR 231435Z AUTO 18010G19KT 10SM FEW003 BKN008 23/22 A2979 RMK
AO2 RAE33DZB33E35 SLP087=

Extra information for KOZR:More info

Metar Taf Metar & Taf Last 4 Metars F.Rules Stats Wind Profile Meteogram Temp Stats Airport Information Weather charts Add Link Nearby VenuesMetar ALERT Operation Metar Decoded Social comments

AIRNAV info for KOZR